createdAt,value
2023-05-25T00:00:14.428Z,0.00
2023-05-25T00:01:00.501Z,0.00
2023-05-25T00:01:17.880Z,0.00
2023-05-25T00:01:49.877Z,0.00
2023-05-25T00:02:21.837Z,0.00
2023-05-25T00:02:53.906Z,0.00
2023-05-25T00:03:26.015Z,0.00
2023-05-25T00:03:57.855Z,0.00
2023-05-25T00:04:29.834Z,0.00
2023-05-25T00:05:01.826Z,0.00
2023-05-25T00:05:33.616Z,0.00
2023-05-25T00:06:05.758Z,0.00
2023-05-25T00:06:37.722Z,0.00
2023-05-25T00:07:09.618Z,0.00
2023-05-25T00:07:41.563Z,0.00
2023-05-25T00:08:13.565Z,0.00
2023-05-25T00:08:45.812Z,0.00
2023-05-25T00:09:17.669Z,0.00
2023-05-25T00:09:49.391Z,0.00
2023-05-25T00:10:21.780Z,0.00
2023-05-25T00:10:53.447Z,0.00
2023-05-25T00:11:25.545Z,0.00
2023-05-25T00:11:57.292Z,0.00
2023-05-25T00:12:29.324Z,0.00
2023-05-25T00:13:01.437Z,0.00
2023-05-25T00:13:33.404Z,0.00
2023-05-25T00:14:05.380Z,0.00
2023-05-25T00:14:37.337Z,0.00
2023-05-25T00:15:09.464Z,0.00
2023-05-25T00:15:41.183Z,0.00
2023-05-25T00:16:13.148Z,0.00
2023-05-25T00:16:45.402Z,0.00
2023-05-25T00:17:17.404Z,0.00
2023-05-25T00:17:49.249Z,0.00
2023-05-25T00:18:21.209Z,0.00
2023-05-25T00:18:53.107Z,0.00
2023-05-25T00:19:25.134Z,0.00
2023-05-25T00:19:57.702Z,0.00
2023-05-25T00:20:29.010Z,0.00
2023-05-25T00:21:01.230Z,0.00
2023-05-25T00:21:33.019Z,0.00
2023-05-25T00:22:04.796Z,0.00
2023-05-25T00:22:36.913Z,0.00
2023-05-25T00:23:08.900Z,0.00
2023-05-25T00:23:41.041Z,0.00
2023-05-25T00:24:12.778Z,0.00
2023-05-25T00:24:44.797Z,0.00
2023-05-25T00:25:16.874Z,0.00
2023-05-25T00:25:48.658Z,0.00
2023-05-25T00:26:20.849Z,0.00
2023-05-25T00:26:52.742Z,0.00
2023-05-25T00:27:24.739Z,0.00
2023-05-25T00:27:56.673Z,0.00
2023-05-25T00:28:28.607Z,0.00
2023-05-25T00:29:00.860Z,0.00
2023-05-25T00:29:33.068Z,0.00
2023-05-25T00:30:04.649Z,0.00
2023-05-25T00:30:36.654Z,0.00
2023-05-25T00:31:08.663Z,0.00
2023-05-25T00:31:40.727Z,0.00
2023-05-25T00:32:12.433Z,0.00
2023-05-25T00:32:44.564Z,0.00
2023-05-25T00:33:16.477Z,0.00
2023-05-25T00:33:48.498Z,0.00
2023-05-25T00:34:20.449Z,0.00
2023-05-25T00:34:52.415Z,0.00
2023-05-25T00:35:24.514Z,0.00
2023-05-25T00:35:56.964Z,0.00
2023-05-25T00:36:28.272Z,0.00
2023-05-25T00:37:00.337Z,0.00
2023-05-25T00:37:32.310Z,0.00
2023-05-25T00:38:04.378Z,0.00
2023-05-25T00:38:36.288Z,0.00
2023-05-25T00:39:08.422Z,0.00
2023-05-25T00:39:40.400Z,0.00
2023-05-25T00:40:12.218Z,0.00
2023-05-25T00:40:44.110Z,0.00
2023-05-25T00:41:16.511Z,0.00
2023-05-25T00:41:48.171Z,0.00
2023-05-25T00:42:20.093Z,0.00
2023-05-25T00:42:52.106Z,0.00
2023-05-25T00:43:24.203Z,0.00
2023-05-25T00:43:56.193Z,0.00
2023-05-25T00:44:27.944Z,0.00
2023-05-25T00:44:59.967Z,0.00
2023-05-25T00:45:32.083Z,0.00
2023-05-25T00:46:04.195Z,0.00
2023-05-25T00:46:35.892Z,0.00
2023-05-25T00:47:07.885Z,0.00
2023-05-25T00:47:39.937Z,0.00
2023-05-25T00:48:11.793Z,0.00
2023-05-25T00:48:43.824Z,0.00
2023-05-25T00:49:15.972Z,0.00
2023-05-25T00:49:47.835Z,0.00
2023-05-25T00:50:19.812Z,0.00
2023-05-25T00:50:51.640Z,0.00
2023-05-25T00:51:23.756Z,0.00
2023-05-25T00:51:55.735Z,0.00
2023-05-25T00:52:27.862Z,0.00
2023-05-25T00:52:59.444Z,0.00
2023-05-25T00:53:31.530Z,0.00
2023-05-25T00:54:03.545Z,0.00
2023-05-25T00:54:35.693Z,0.00
2023-05-25T00:55:07.429Z,0.00
2023-05-25T00:55:39.546Z,0.00
2023-05-25T00:56:11.677Z,0.00
2023-05-25T00:56:43.653Z,0.00
2023-05-25T00:57:15.546Z,0.00
2023-05-25T00:57:47.437Z,0.00
2023-05-25T00:58:19.539Z,0.00
2023-05-25T00:58:51.587Z,0.00
2023-05-25T00:59:23.423Z,0.00
2023-05-25T00:59:55.336Z,0.00
2023-05-25T01:00:27.589Z,0.00
2023-05-25T01:00:59.508Z,0.00
2023-05-25T01:01:31.466Z,0.00
2023-05-25T01:02:03.501Z,0.00
2023-05-25T01:02:35.443Z,0.00
2023-05-25T01:03:09.076Z,0.00
2023-05-25T01:03:39.328Z,0.00
2023-05-25T01:04:11.358Z,0.00
2023-05-25T01:04:43.384Z,0.00
2023-05-25T01:05:15.021Z,0.00
2023-05-25T01:05:47.041Z,0.00
2023-05-25T01:06:19.146Z,0.00
2023-05-25T01:06:51.222Z,0.00
2023-05-25T01:07:23.083Z,0.00
2023-05-25T01:07:54.952Z,0.00
2023-05-25T01:08:27.111Z,0.00
2023-05-25T01:08:59.156Z,0.00
2023-05-25T01:09:30.941Z,0.00
2023-05-25T01:10:03.182Z,0.00
2023-05-25T01:10:35.119Z,0.00
2023-05-25T01:11:07.048Z,0.00
2023-05-25T01:11:38.861Z,0.00
2023-05-25T01:12:10.929Z,0.00
2023-05-25T01:12:42.926Z,0.00
2023-05-25T01:13:14.842Z,0.00
2023-05-25T01:13:46.790Z,0.00
2023-05-25T01:14:19.213Z,0.00
2023-05-25T01:14:50.881Z,0.00
2023-05-25T01:15:22.965Z,0.00
2023-05-25T01:15:54.722Z,0.00
2023-05-25T01:16:26.697Z,0.00
2023-05-25T01:16:58.647Z,0.00
2023-05-25T01:17:30.884Z,0.00
2023-05-25T01:18:02.679Z,0.00
2023-05-25T01:18:34.599Z,0.00
2023-05-25T01:19:06.704Z,0.00
2023-05-25T01:19:38.820Z,0.00
2023-05-25T01:20:12.011Z,0.00
2023-05-25T01:20:42.483Z,0.00
2023-05-25T01:21:14.578Z,0.00
2023-05-25T01:21:46.515Z,0.00
2023-05-25T01:22:18.300Z,0.00
2023-05-25T01:22:50.378Z,0.00
2023-05-25T01:23:22.530Z,0.00
2023-05-25T01:23:54.626Z,0.00
2023-05-25T01:24:26.579Z,0.00
2023-05-25T01:24:58.285Z,0.00
2023-05-25T01:25:30.265Z,0.00
2023-05-25T01:26:02.406Z,0.00
2023-05-25T01:26:34.187Z,0.00
2023-05-25T01:27:06.180Z,0.00
2023-05-25T01:27:38.244Z,0.00
2023-05-25T01:28:10.157Z,0.00
2023-05-25T01:28:42.181Z,0.00
2023-05-25T01:29:14.200Z,0.00
2023-05-25T01:29:46.148Z,0.00
2023-05-25T01:30:18.267Z,0.00
2023-05-25T01:30:50.263Z,0.00
2023-05-25T01:31:22.204Z,0.00
2023-05-25T01:31:54.125Z,0.00
2023-05-25T01:32:26.108Z,0.00
2023-05-25T01:32:57.927Z,0.00
2023-05-25T01:33:29.947Z,0.00
2023-05-25T01:34:02.086Z,0.00
2023-05-25T01:34:34.022Z,0.00
2023-05-25T01:35:05.922Z,0.00
2023-05-25T01:35:37.852Z,0.00
2023-05-25T01:36:09.961Z,0.00
2023-05-25T01:36:42.072Z,0.00
2023-05-25T01:37:13.719Z,0.00
2023-05-25T01:37:45.827Z,0.00
2023-05-25T01:38:17.777Z,0.00
2023-05-25T01:38:49.902Z,0.00
2023-05-25T01:39:21.755Z,0.00
2023-05-25T01:39:53.659Z,0.00
2023-05-25T01:40:25.683Z,0.00
2023-05-25T01:40:57.547Z,0.00
2023-05-25T01:41:29.640Z,0.00
2023-05-25T01:42:01.720Z,0.00
2023-05-25T01:42:34.251Z,0.00
2023-05-25T01:43:05.735Z,0.00
2023-05-25T01:43:37.579Z,0.00
2023-05-25T01:44:09.603Z,0.00
2023-05-25T01:44:41.621Z,0.00
2023-05-25T01:45:13.708Z,0.00
2023-05-25T01:45:45.656Z,0.00
2023-05-25T01:46:17.534Z,0.00
2023-05-25T01:46:49.423Z,0.00
2023-05-25T01:47:21.649Z,0.00
2023-05-25T01:47:53.193Z,0.00
2023-05-25T01:48:25.436Z,0.00
2023-05-25T01:48:57.449Z,0.00
2023-05-25T01:49:29.186Z,0.00
2023-05-25T01:50:01.465Z,0.00
2023-05-25T01:50:33.260Z,0.00
2023-05-25T01:51:05.361Z,0.00
2023-05-25T01:51:37.096Z,0.00
2023-05-25T01:52:09.213Z,0.00
2023-05-25T01:52:41.258Z,0.00
2023-05-25T01:53:13.167Z,0.00
2023-05-25T01:53:44.947Z,0.00
2023-05-25T01:54:17.129Z,0.00
2023-05-25T01:54:49.071Z,0.00
2023-05-25T01:55:21.157Z,0.00
2023-05-25T01:55:52.851Z,0.00
2023-05-25T01:56:24.940Z,0.00
2023-05-25T01:56:56.858Z,0.00
2023-05-25T01:57:28.890Z,0.00
2023-05-25T01:58:01.128Z,0.00
2023-05-25T01:58:33.279Z,0.00
2023-05-25T01:59:04.920Z,0.00
2023-05-25T01:59:36.943Z,0.00
2023-05-25T02:00:09.567Z,0.00
2023-05-25T02:00:40.880Z,0.00
2023-05-25T02:01:12.879Z,0.00
2023-05-25T02:01:44.982Z,0.00
2023-05-25T02:02:16.770Z,0.00
2023-05-25T02:02:48.762Z,0.00
2023-05-25T02:03:20.842Z,0.00
2023-05-25T02:03:52.786Z,0.00
2023-05-25T02:04:24.780Z,0.00
2023-05-25T02:04:56.845Z,0.00
2023-05-25T02:05:28.648Z,0.00
2023-05-25T02:06:00.574Z,0.00
2023-05-25T02:06:32.541Z,0.00
2023-05-25T02:07:04.798Z,0.00
2023-05-25T02:07:36.713Z,0.00
2023-05-25T02:08:08.460Z,0.00
2023-05-25T02:08:40.487Z,0.00
2023-05-25T02:09:12.520Z,0.00
2023-05-25T02:09:44.602Z,0.00
2023-05-25T02:10:16.441Z,0.00
2023-05-25T02:10:48.354Z,0.00
2023-05-25T02:11:20.456Z,0.00
2023-05-25T02:11:52.519Z,0.00
2023-05-25T02:12:24.353Z,0.00
2023-05-25T02:12:56.351Z,0.00
2023-05-25T02:13:28.526Z,0.00
2023-05-25T02:14:00.191Z,0.00
2023-05-25T02:14:32.235Z,0.00
2023-05-25T02:15:04.412Z,0.00
2023-05-25T02:15:36.411Z,0.00
2023-05-25T02:16:08.229Z,0.00
2023-05-25T02:16:40.121Z,0.00
2023-05-25T02:17:12.114Z,0.00
2023-05-25T02:17:44.265Z,0.00
2023-05-25T02:18:15.958Z,0.00
2023-05-25T02:18:47.977Z,0.00
2023-05-25T02:19:20.003Z,0.00
2023-05-25T02:19:52.117Z,0.00
2023-05-25T02:20:23.887Z,0.00
2023-05-25T02:20:55.930Z,0.00
2023-05-25T02:21:28.083Z,0.00
2023-05-25T02:22:00.122Z,0.00
2023-05-25T02:22:31.818Z,0.00
2023-05-25T02:23:03.802Z,0.00
2023-05-25T02:23:35.903Z,0.00
2023-05-25T02:24:07.974Z,0.00
2023-05-25T02:24:39.617Z,0.00
2023-05-25T02:25:11.810Z,0.00
2023-05-25T02:25:43.982Z,0.00
2023-05-25T02:26:15.701Z,0.00
2023-05-25T02:26:47.527Z,0.00
2023-05-25T02:27:19.644Z,0.00
2023-05-25T02:27:51.812Z,0.00
2023-05-25T02:28:23.809Z,0.00
2023-05-25T02:28:55.631Z,0.00
2023-05-25T02:29:27.576Z,0.00
2023-05-25T02:29:59.607Z,0.01
2023-05-25T02:30:31.778Z,0.01
2023-05-25T02:31:03.502Z,0.01
2023-05-25T02:31:35.485Z,0.01
2023-05-25T02:32:07.504Z,0.01
2023-05-25T02:32:39.676Z,0.01
2023-05-25T02:33:11.349Z,0.01
2023-05-25T02:33:43.408Z,0.01
2023-05-25T02:34:15.517Z,0.02
2023-05-25T02:34:47.288Z,0.02
2023-05-25T02:35:19.303Z,0.02
2023-05-25T02:35:51.409Z,0.02
2023-05-25T02:36:23.352Z,0.02
2023-05-25T02:36:55.181Z,0.02
2023-05-25T02:37:27.206Z,0.02
2023-05-25T02:37:59.301Z,0.02
2023-05-25T02:38:31.433Z,0.02
2023-05-25T02:39:03.210Z,0.03
2023-05-25T02:39:35.260Z,0.03
2023-05-25T02:40:07.230Z,0.03
2023-05-25T02:40:39.210Z,0.03
2023-05-25T02:41:11.156Z,0.04
2023-05-25T02:41:43.165Z,0.04
2023-05-25T02:42:15.073Z,0.05
2023-05-25T02:42:47.136Z,0.05
2023-05-25T02:43:18.932Z,0.06
2023-05-25T02:43:51.253Z,0.06
2023-05-25T02:44:23.136Z,0.06
2023-05-25T02:44:54.869Z,0.06
2023-05-25T02:45:26.961Z,0.07
2023-05-25T02:45:59.053Z,0.07
2023-05-25T02:46:31.251Z,0.08
2023-05-25T02:47:03.015Z,0.09
2023-05-25T02:47:34.786Z,0.09
2023-05-25T02:48:06.848Z,0.10
2023-05-25T02:48:39.040Z,0.11
2023-05-25T02:49:11.031Z,0.12
2023-05-25T02:49:42.788Z,0.13
2023-05-25T02:50:14.722Z,0.13
2023-05-25T02:50:46.749Z,0.14
2023-05-25T02:51:18.572Z,0.15
2023-05-25T02:51:51.085Z,0.17
2023-05-25T02:52:22.712Z,0.17
2023-05-25T02:52:54.663Z,0.19
2023-05-25T02:53:26.524Z,0.21
2023-05-25T02:53:58.561Z,0.21
2023-05-25T02:54:30.711Z,0.24
2023-05-25T02:55:02.687Z,0.24
2023-05-25T02:55:34.419Z,0.27
2023-05-25T02:56:06.535Z,0.28
2023-05-25T02:56:38.390Z,0.30
2023-05-25T02:57:10.732Z,0.32
2023-05-25T02:57:42.341Z,0.34
2023-05-25T02:58:14.354Z,0.36
2023-05-25T02:58:46.268Z,0.39
2023-05-25T02:59:18.233Z,0.41
2023-05-25T02:59:50.257Z,0.44
2023-05-25T03:00:22.400Z,0.47
2023-05-25T03:00:54.364Z,0.50
2023-05-25T03:01:26.257Z,0.53
2023-05-25T03:01:58.221Z,0.57
2023-05-25T03:02:30.441Z,0.60
2023-05-25T03:03:02.416Z,0.64
2023-05-25T03:03:34.194Z,0.68
2023-05-25T03:04:06.180Z,0.72
2023-05-25T03:04:38.297Z,0.76
2023-05-25T03:05:10.558Z,0.81
2023-05-25T03:05:42.107Z,0.84
2023-05-25T03:06:14.017Z,0.89
2023-05-25T03:06:46.152Z,0.94
2023-05-25T03:07:18.202Z,0.99
2023-05-25T03:07:49.935Z,1.04
2023-05-25T03:08:21.944Z,1.09
2023-05-25T03:08:54.764Z,1.14
2023-05-25T03:09:25.992Z,1.20
2023-05-25T03:09:58.857Z,1.26
2023-05-25T03:10:29.994Z,1.32
2023-05-25T03:11:04.276Z,1.38
2023-05-25T03:11:33.908Z,1.44
2023-05-25T03:12:06.814Z,1.51
2023-05-25T03:12:37.906Z,1.58
2023-05-25T03:13:11.028Z,1.65
2023-05-25T03:13:41.788Z,1.72
2023-05-25T03:14:14.690Z,1.80
2023-05-25T03:14:45.968Z,1.88
2023-05-25T03:15:18.774Z,1.96
2023-05-25T03:15:49.749Z,2.04
2023-05-25T03:16:22.490Z,2.13
2023-05-25T03:16:54.120Z,2.22
2023-05-25T03:17:26.745Z,2.31
2023-05-25T03:17:57.705Z,2.41
2023-05-25T03:18:30.789Z,2.51
2023-05-25T03:19:01.536Z,2.61
2023-05-25T03:19:34.732Z,2.72
2023-05-25T03:20:05.697Z,2.83
2023-05-25T03:20:38.535Z,2.94
2023-05-25T03:21:09.430Z,3.05
2023-05-25T03:21:42.470Z,3.16
2023-05-25T03:22:13.558Z,3.28
2023-05-25T03:22:46.410Z,3.40
2023-05-25T03:23:17.366Z,3.52
2023-05-25T03:23:50.357Z,3.65
2023-05-25T03:24:21.282Z,3.78
2023-05-25T03:24:54.140Z,3.91
2023-05-25T03:25:25.477Z,4.04
2023-05-25T03:25:58.437Z,4.16
2023-05-25T03:26:29.054Z,4.22
2023-05-25T03:27:02.200Z,4.43
2023-05-25T03:27:33.350Z,4.59
2023-05-25T03:28:05.994Z,4.80
2023-05-25T03:28:37.025Z,4.98
2023-05-25T03:29:10.086Z,5.11
2023-05-25T03:29:41.486Z,5.26
2023-05-25T03:30:14.297Z,5.44
2023-05-25T03:30:44.992Z,5.63
2023-05-25T03:31:17.870Z,5.75
2023-05-25T03:31:49.007Z,5.78
2023-05-25T03:32:22.206Z,5.79
2023-05-25T03:32:52.989Z,5.80
2023-05-25T03:33:25.791Z,5.80
2023-05-25T03:33:56.997Z,5.86
2023-05-25T03:34:29.911Z,5.97
2023-05-25T03:35:01.185Z,6.17
2023-05-25T03:35:34.541Z,6.42
2023-05-25T03:36:04.892Z,6.68
2023-05-25T03:36:37.799Z,6.99
2023-05-25T03:37:08.851Z,7.21
2023-05-25T03:37:41.721Z,7.29
2023-05-25T03:38:12.653Z,7.28
2023-05-25T03:38:45.847Z,7.31
2023-05-25T03:39:16.700Z,7.44
2023-05-25T03:39:49.642Z,7.65
2023-05-25T03:40:21.038Z,7.88
2023-05-25T03:40:53.572Z,8.10
2023-05-25T03:41:24.529Z,8.27
2023-05-25T03:41:57.577Z,8.38
2023-05-25T03:42:28.689Z,8.48
2023-05-25T03:43:01.657Z,8.64
2023-05-25T03:43:32.538Z,8.85
2023-05-25T03:44:05.687Z,9.04
2023-05-25T03:44:37.009Z,9.25
2023-05-25T03:45:09.690Z,9.53
2023-05-25T03:45:40.439Z,9.80
2023-05-25T03:46:13.287Z,9.98
2023-05-25T03:46:44.436Z,10.10
2023-05-25T03:47:17.486Z,10.18
2023-05-25T03:47:48.413Z,10.22
2023-05-25T03:48:21.355Z,10.23
2023-05-25T03:48:52.292Z,10.21
2023-05-25T03:49:25.384Z,10.17
2023-05-25T03:49:56.212Z,10.08
2023-05-25T03:50:29.370Z,9.91
2023-05-25T03:51:00.250Z,9.69
2023-05-25T03:51:33.252Z,9.57
2023-05-25T03:52:04.189Z,9.62
2023-05-25T03:52:38.048Z,9.73
2023-05-25T03:53:08.146Z,9.84
2023-05-25T03:53:41.086Z,9.96
2023-05-25T03:54:11.969Z,9.94
2023-05-25T03:54:45.064Z,9.89
2023-05-25T03:55:16.273Z,9.95
2023-05-25T03:55:48.790Z,10.27
2023-05-25T03:56:20.001Z,10.72
2023-05-25T03:56:52.853Z,11.02
2023-05-25T03:57:23.869Z,11.12
2023-05-25T03:57:56.826Z,11.07
2023-05-25T03:58:27.776Z,10.92
2023-05-25T03:59:00.966Z,10.70
2023-05-25T03:59:31.897Z,10.66
2023-05-25T04:00:05.362Z,10.76
2023-05-25T04:00:35.778Z,10.71
2023-05-25T04:01:08.954Z,10.47
2023-05-25T04:01:39.818Z,10.43
2023-05-25T04:02:12.750Z,10.93
2023-05-25T04:02:43.892Z,11.58
2023-05-25T04:03:16.781Z,11.90
2023-05-25T04:03:48.017Z,12.09
2023-05-25T04:04:20.777Z,12.45
2023-05-25T04:04:51.940Z,13.16
2023-05-25T04:05:24.635Z,13.78
2023-05-25T04:05:55.672Z,14.26
2023-05-25T04:06:28.719Z,14.63
2023-05-25T04:06:59.516Z,14.59
2023-05-25T04:07:32.460Z,14.29
2023-05-25T04:08:03.665Z,14.10
2023-05-25T04:08:36.486Z,14.53
2023-05-25T04:09:07.420Z,15.61
2023-05-25T04:09:40.546Z,16.70
2023-05-25T04:10:11.349Z,17.36
2023-05-25T04:10:44.495Z,17.55
2023-05-25T04:11:15.313Z,17.36
2023-05-25T04:11:48.248Z,17.10
2023-05-25T04:12:19.289Z,17.12
2023-05-25T04:12:52.330Z,17.14
2023-05-25T04:13:23.351Z,17.10
2023-05-25T04:13:56.502Z,17.28
2023-05-25T04:14:27.253Z,17.41
2023-05-25T04:15:00.039Z,17.57
2023-05-25T04:15:31.324Z,18.01
2023-05-25T04:16:04.403Z,18.65
2023-05-25T04:16:35.071Z,19.57
2023-05-25T04:17:08.107Z,20.97
2023-05-25T04:17:39.579Z,22.30
2023-05-25T04:18:12.169Z,23.65
2023-05-25T04:18:43.016Z,25.85
2023-05-25T04:19:15.874Z,28.22
2023-05-25T04:19:47.030Z,30.56
2023-05-25T04:20:20.055Z,32.34
2023-05-25T04:20:50.939Z,31.80
2023-05-25T04:21:23.757Z,30.64
2023-05-25T04:21:55.417Z,31.13
2023-05-25T04:22:27.904Z,31.48
2023-05-25T04:22:58.823Z,30.14
2023-05-25T04:23:31.797Z,28.94
2023-05-25T04:24:02.927Z,29.34
2023-05-25T04:24:35.830Z,30.87
2023-05-25T04:25:06.567Z,32.21
2023-05-25T04:25:39.808Z,32.82
2023-05-25T04:26:11.021Z,33.06
2023-05-25T04:26:43.757Z,33.54
2023-05-25T04:27:14.496Z,34.51
2023-05-25T04:27:47.623Z,35.44
2023-05-25T04:28:18.765Z,35.99
2023-05-25T04:28:51.567Z,36.33
2023-05-25T04:29:22.490Z,36.65
2023-05-25T04:29:55.445Z,37.16
2023-05-25T04:30:26.677Z,37.83
2023-05-25T04:30:59.480Z,38.63
2023-05-25T04:31:30.655Z,38.94
2023-05-25T04:32:03.677Z,38.88
2023-05-25T04:32:34.465Z,38.72
2023-05-25T04:33:07.733Z,38.17
2023-05-25T04:33:38.429Z,37.33
2023-05-25T04:34:11.448Z,36.87
2023-05-25T04:34:42.481Z,36.69
2023-05-25T04:35:15.549Z,36.55
2023-05-25T04:35:46.432Z,36.16
2023-05-25T04:36:19.550Z,35.50
2023-05-25T04:36:50.544Z,34.69
2023-05-25T04:37:23.203Z,34.02
2023-05-25T04:37:54.286Z,33.82
2023-05-25T04:38:27.246Z,34.27
2023-05-25T04:38:58.292Z,35.15
2023-05-25T04:39:31.436Z,35.73
2023-05-25T04:40:02.248Z,35.33
2023-05-25T04:40:35.986Z,34.47
2023-05-25T04:41:06.286Z,34.21
2023-05-25T04:41:39.098Z,34.96
2023-05-25T04:42:10.067Z,36.04
2023-05-25T04:42:43.116Z,36.49
2023-05-25T04:43:14.209Z,36.15
2023-05-25T04:44:03.911Z,36.16
2023-05-25T04:44:17.890Z,37.43
2023-05-25T04:44:51.135Z,39.27
2023-05-25T04:45:22.037Z,40.36
2023-05-25T04:45:54.752Z,40.67
2023-05-25T04:46:26.169Z,40.31
2023-05-25T04:46:58.815Z,39.42
2023-05-25T04:47:29.845Z,38.99
2023-05-25T04:48:02.815Z,38.80
2023-05-25T04:48:34.237Z,38.42
2023-05-25T04:49:06.751Z,38.30
2023-05-25T04:49:37.953Z,38.85
2023-05-25T04:50:11.955Z,40.35
2023-05-25T04:50:41.734Z,42.05
2023-05-25T04:51:14.669Z,43.05
2023-05-25T04:51:45.665Z,43.06
2023-05-25T04:52:19.516Z,42.83
2023-05-25T04:52:49.701Z,43.12
2023-05-25T04:53:22.768Z,44.10
2023-05-25T04:53:53.716Z,45.00
2023-05-25T04:54:26.603Z,45.47
2023-05-25T04:54:57.474Z,45.81
2023-05-25T04:55:30.706Z,46.30
2023-05-25T04:56:01.640Z,46.54
2023-05-25T04:56:34.155Z,46.48
2023-05-25T04:57:05.262Z,46.36
2023-05-25T04:57:39.571Z,46.37
2023-05-25T04:58:09.576Z,46.50
2023-05-25T04:58:42.146Z,46.67
2023-05-25T04:59:13.268Z,46.41
2023-05-25T04:59:46.415Z,45.58
2023-05-25T05:00:17.952Z,44.78
2023-05-25T05:00:52.472Z,44.84
2023-05-25T05:01:21.307Z,45.87
2023-05-25T05:01:54.435Z,46.91
2023-05-25T05:02:25.300Z,47.13
2023-05-25T05:02:58.189Z,46.70
2023-05-25T05:03:29.329Z,46.35
2023-05-25T05:04:02.516Z,45.98
2023-05-25T05:04:33.164Z,45.22
2023-05-25T05:05:05.973Z,45.00
2023-05-25T05:05:37.072Z,45.41
2023-05-25T05:06:10.306Z,46.05
2023-05-25T05:06:41.208Z,46.38
2023-05-25T05:07:13.689Z,46.38
2023-05-25T05:07:45.023Z,46.58
2023-05-25T05:08:18.045Z,47.35
2023-05-25T05:08:49.161Z,48.04
2023-05-25T05:09:21.836Z,48.08
2023-05-25T05:09:52.860Z,47.83
2023-05-25T05:10:25.730Z,48.14
2023-05-25T05:10:56.940Z,49.04
2023-05-25T05:11:29.821Z,50.62
2023-05-25T05:12:00.866Z,53.00
2023-05-25T05:12:33.895Z,56.54
2023-05-25T05:13:05.031Z,60.58
2023-05-25T05:13:37.647Z,63.77
2023-05-25T05:14:08.702Z,66.36
2023-05-25T05:14:41.728Z,69.70
2023-05-25T05:15:12.944Z,74.53
2023-05-25T05:15:46.147Z,79.01
2023-05-25T05:16:16.764Z,80.32
2023-05-25T05:16:49.599Z,77.82
2023-05-25T05:17:21.529Z,75.73
2023-05-25T05:17:53.403Z,75.57
2023-05-25T05:18:24.613Z,77.62
2023-05-25T05:18:57.722Z,80.87
2023-05-25T05:19:28.416Z,83.91
2023-05-25T05:20:01.656Z,87.39
2023-05-25T05:20:32.557Z,89.56
2023-05-25T05:21:05.438Z,90.27
2023-05-25T05:21:36.481Z,87.43
2023-05-25T05:22:09.304Z,84.89
2023-05-25T05:22:40.567Z,82.87
2023-05-25T05:23:13.581Z,80.85
2023-05-25T05:23:44.271Z,78.80
2023-05-25T05:24:17.120Z,76.59
2023-05-25T05:24:48.263Z,73.67
2023-05-25T05:25:21.462Z,70.87
2023-05-25T05:25:52.185Z,68.43
2023-05-25T05:26:25.153Z,66.91
2023-05-25T05:26:58.161Z,65.81
2023-05-25T05:27:29.204Z,65.52
2023-05-25T05:28:00.050Z,66.20
2023-05-25T05:28:33.419Z,66.92
2023-05-25T05:29:03.980Z,67.13
2023-05-25T05:29:37.109Z,66.91
2023-05-25T05:30:08.098Z,66.12
2023-05-25T05:30:41.426Z,64.85
2023-05-25T05:31:12.462Z,63.30
2023-05-25T05:31:45.179Z,62.34
2023-05-25T05:32:15.854Z,61.74
2023-05-25T05:32:49.106Z,61.39
2023-05-25T05:33:20.258Z,60.75
2023-05-25T05:33:53.176Z,60.00
2023-05-25T05:34:24.034Z,58.86
2023-05-25T05:34:56.712Z,57.55
2023-05-25T05:35:27.921Z,56.17
2023-05-25T05:36:00.935Z,55.43
2023-05-25T05:36:38.759Z,55.06
2023-05-25T05:37:04.703Z,55.51
2023-05-25T05:37:35.944Z,56.33
2023-05-25T05:38:08.925Z,57.08
2023-05-25T05:38:40.068Z,57.29
2023-05-25T05:39:12.521Z,56.84
2023-05-25T05:39:43.624Z,56.03
2023-05-25T05:40:17.013Z,54.76
2023-05-25T05:40:47.405Z,53.49
2023-05-25T05:41:20.611Z,52.07
2023-05-25T05:41:51.726Z,50.28
2023-05-25T05:42:24.499Z,48.42
2023-05-25T05:42:55.509Z,46.84
2023-05-25T05:43:28.643Z,45.94
2023-05-25T05:43:59.477Z,45.40
2023-05-25T05:44:32.413Z,44.91
2023-05-25T05:45:03.357Z,44.47
2023-05-25T05:45:37.292Z,44.33
2023-05-25T05:46:07.533Z,44.57
2023-05-25T05:46:40.147Z,45.04
2023-05-25T05:47:11.317Z,45.44
2023-05-25T05:47:44.296Z,45.65
2023-05-25T05:48:15.406Z,46.09
2023-05-25T05:48:48.222Z,47.17
2023-05-25T05:49:19.280Z,48.58
2023-05-25T05:49:52.244Z,49.81
2023-05-25T05:50:23.366Z,50.13
2023-05-25T05:50:56.116Z,49.56
2023-05-25T05:51:27.189Z,48.81
2023-05-25T05:52:00.267Z,47.70
2023-05-25T05:52:31.345Z,45.89
2023-05-25T05:53:04.354Z,43.40
2023-05-25T05:53:35.112Z,40.97
2023-05-25T05:54:08.104Z,39.06
2023-05-25T05:54:39.168Z,37.96
2023-05-25T05:55:11.787Z,37.81
2023-05-25T05:55:43.161Z,38.40
2023-05-25T05:56:16.135Z,39.53
2023-05-25T05:56:46.941Z,41.17
2023-05-25T05:57:19.757Z,43.24
2023-05-25T05:57:51.063Z,45.71
2023-05-25T05:58:23.985Z,47.98
2023-05-25T05:58:54.878Z,49.83
2023-05-25T05:59:27.775Z,51.41
2023-05-25T05:59:58.746Z,53.21
2023-05-25T06:00:31.879Z,55.48
2023-05-25T06:01:02.671Z,58.03
2023-05-25T06:01:35.837Z,60.26
2023-05-25T06:02:06.757Z,61.51
2023-05-25T06:02:41.645Z,61.64
2023-05-25T06:03:10.552Z,60.87
2023-05-25T06:03:43.769Z,60.16
2023-05-25T06:04:14.611Z,59.65
2023-05-25T06:04:47.652Z,58.95
2023-05-25T06:05:18.513Z,57.53
2023-05-25T06:05:51.598Z,55.51
2023-05-25T06:06:22.589Z,53.88
2023-05-25T06:06:55.720Z,52.96
2023-05-25T06:07:26.540Z,53.05
2023-05-25T06:07:59.362Z,53.90
2023-05-25T06:08:30.716Z,54.88
2023-05-25T06:09:03.440Z,55.95
2023-05-25T06:09:34.387Z,56.72
2023-05-25T06:10:07.489Z,57.81
2023-05-25T06:10:38.476Z,59.27
2023-05-25T06:11:11.535Z,61.33
2023-05-25T06:11:42.427Z,64.18
2023-05-25T06:12:15.198Z,67.68
2023-05-25T06:12:46.234Z,71.56
2023-05-25T06:13:19.295Z,74.74
2023-05-25T06:13:50.137Z,76.21
2023-05-25T06:14:23.052Z,76.91
2023-05-25T06:14:54.358Z,76.83
2023-05-25T06:15:27.523Z,75.88
2023-05-25T06:15:58.078Z,74.70
2023-05-25T06:16:31.463Z,72.85
2023-05-25T06:17:02.535Z,71.44
2023-05-25T06:17:35.312Z,70.11
2023-05-25T06:18:06.014Z,69.54
2023-05-25T06:18:39.137Z,69.41
2023-05-25T06:19:10.019Z,69.33
2023-05-25T06:19:43.112Z,69.12
2023-05-25T06:20:14.043Z,69.33
2023-05-25T06:20:47.091Z,70.35
2023-05-25T06:21:17.984Z,71.93
2023-05-25T06:21:51.160Z,73.84
2023-05-25T06:22:21.947Z,74.96
2023-05-25T06:22:54.909Z,74.94
2023-05-25T06:23:25.862Z,73.96
2023-05-25T06:23:58.825Z,73.05
2023-05-25T06:24:29.696Z,72.61
2023-05-25T06:25:02.939Z,72.60
2023-05-25T06:25:33.961Z,72.98
2023-05-25T06:26:06.575Z,73.38
2023-05-25T06:26:37.534Z,73.80
2023-05-25T06:27:10.895Z,74.55
2023-05-25T06:27:41.757Z,75.52
2023-05-25T06:28:14.386Z,77.36
2023-05-25T06:28:45.508Z,79.90
2023-05-25T06:29:18.575Z,82.87
2023-05-25T06:29:49.537Z,86.13
2023-05-25T06:30:22.541Z,88.10
2023-05-25T06:30:53.603Z,89.79
2023-05-25T06:31:26.370Z,91.55
2023-05-25T06:31:57.529Z,93.28
2023-05-25T06:32:30.502Z,95.41
2023-05-25T06:33:01.513Z,96.76
2023-05-25T06:33:36.095Z,96.95
2023-05-25T06:34:05.394Z,96.24
2023-05-25T06:34:38.450Z,95.40
2023-05-25T06:35:09.582Z,95.25
2023-05-25T06:35:42.517Z,96.27
2023-05-25T06:36:13.206Z,98.37
2023-05-25T06:36:46.276Z,103.10
2023-05-25T06:37:17.174Z,109.30
2023-05-25T06:37:50.487Z,115.79
2023-05-25T06:38:21.472Z,121.08
2023-05-25T06:38:54.186Z,124.59
2023-05-25T06:39:25.115Z,123.88
2023-05-25T06:39:58.051Z,121.05
2023-05-25T06:40:29.098Z,116.64
2023-05-25T06:41:02.027Z,112.51
2023-05-25T06:41:32.906Z,109.90
2023-05-25T06:42:06.044Z,107.58
2023-05-25T06:42:36.992Z,106.40
2023-05-25T06:43:10.775Z,106.76
2023-05-25T06:43:41.134Z,108.72
2023-05-25T06:44:13.894Z,112.32
2023-05-25T06:44:44.788Z,114.97
2023-05-25T06:45:18.021Z,117.41
2023-05-25T06:45:48.911Z,117.87
2023-05-25T06:46:22.031Z,116.54
2023-05-25T06:46:52.799Z,113.35
2023-05-25T06:47:25.759Z,110.41
2023-05-25T06:47:56.940Z,107.92
2023-05-25T06:48:29.759Z,107.18
2023-05-25T06:49:00.862Z,108.58
2023-05-25T06:49:33.701Z,112.42
2023-05-25T06:50:04.887Z,116.60
2023-05-25T06:50:37.813Z,122.43
2023-05-25T06:51:08.579Z,130.77
2023-05-25T06:51:41.701Z,138.48
2023-05-25T06:52:12.587Z,145.73
2023-05-25T06:52:46.539Z,151.83
2023-05-25T06:53:16.474Z,156.60
2023-05-25T06:53:49.617Z,157.45
2023-05-25T06:54:20.945Z,158.56
2023-05-25T06:54:53.571Z,157.45
2023-05-25T06:55:24.507Z,156.99
2023-05-25T06:55:57.424Z,152.69
2023-05-25T06:56:28.568Z,148.86
2023-05-25T06:57:01.545Z,145.34
2023-05-25T06:57:32.252Z,143.17
2023-05-25T06:58:05.560Z,142.29
2023-05-25T06:58:36.513Z,141.78